Time;durP1;ratioP1;P1;durP2;ratioP2;P2;SDS_P1;SDS_P2;PMS_P1;PMS_P2;Temp;Humidity;BMP_temperature;BMP_pressure;BME280_temperature;BME280_humidity;BME280_pressure;Samples;Min_cycle;Max_cycle;Signal;HPM_P1;HPM_P2
2023/02/08 00:01:12;;;;;;;17.48;10.70;;;-1.90;50.60;;;;;;5132711;27;20183;-69
2023/02/08 00:03:40;;;;;;;23.10;11.27;;;-2.00;50.60;;;;;;5129514;27;20293;-69
2023/02/08 00:06:10;;;;;;;21.95;11.50;;;-2.00;50.50;;;;;;5132889;27;20192;-70
2023/02/08 00:08:40;;;;;;;15.65;9.90;;;-2.10;50.90;;;;;;5133274;27;20203;-69
2023/02/08 00:11:10;;;;;;;17.27;10.25;;;-2.10;51.30;;;;;;5128182;27;20231;-70
2023/02/08 00:13:41;;;;;;;24.63;11.13;;;-2.20;51.50;;;;;;5132933;27;20249;-68
2023/02/08 00:16:12;;;;;;;16.83;9.38;;;-2.20;51.80;;;;;;5131815;27;20196;-73
2023/02/08 00:18:39;;;;;;;21.00;10.63;;;-2.20;51.10;;;;;;5127643;27;20195;-69
2023/02/08 00:21:11;;;;;;;18.25;10.50;;;-2.30;50.60;;;;;;5131606;27;20272;-68
2023/02/08 00:23:39;;;;;;;17.33;10.02;;;-2.40;50.90;;;;;;5132721;27;20616;-69
2023/02/08 00:26:06;;;;;;;21.45;11.68;;;-2.40;51.10;;;;;;5131592;27;20641;-70
2023/02/08 00:28:37;;;;;;;17.75;11.77;;;-2.40;51.60;;;;;;5132836;27;20202;-68
2023/02/08 00:31:06;;;;;;;19.02;10.18;;;-2.40;51.50;;;;;;5132430;27;20251;-70
2023/02/08 00:33:36;;;;;;;19.05;10.82;;;-2.40;51.50;;;;;;5132185;27;20195;-71
2023/02/08 00:36:06;;;;;;;17.27;9.50;;;-2.50;51.60;;;;;;5129784;27;20207;-70
2023/02/08 00:38:33;;;;;;;16.83;10.25;;;-2.40;51.80;;;;;;5132875;27;20194;-70
2023/02/08 00:41:02;;;;;;;19.67;12.50;;;-2.40;51.80;;;;;;5131992;27;20666;-72
2023/02/08 00:43:30;;;;;;;18.30;11.75;;;-2.40;51.70;;;;;;5129547;27;20660;-70
2023/02/08 00:46:00;;;;;;;18.15;10.38;;;-2.40;51.90;;;;;;5131391;27;20199;-70
2023/02/08 00:48:33;;;;;;;19.25;11.15;;;-2.50;52.00;;;;;;5131153;27;20191;-70
2023/02/08 00:51:02;;;;;;;18.60;10.52;;;-2.50;52.40;;;;;;5126053;27;20203;-69
2023/02/08 00:53:29;;;;;;;20.30;10.52;;;-2.50;52.50;;;;;;5131763;27;20287;-69
2023/02/08 00:55:57;;;;;;;23.00;12.07;;;-2.50;52.50;;;;;;5130214;27;20194;-69
2023/02/08 00:58:24;;;;;;;18.27;11.57;;;-2.50;52.90;;;;;;5129865;27;20234;-69
2023/02/08 01:00:52;;;;;;;19.80;11.18;;;-2.50;53.20;;;;;;5132807;27;20188;-69
2023/02/08 01:03:21;;;;;;;20.25;12.32;;;-2.50;52.50;;;;;;5132826;27;20184;-70
2023/02/08 01:05:49;;;;;;;19.67;10.20;;;-2.50;52.20;;;;;;5132395;27;20242;-71
2023/02/08 01:08:20;;;;;;;19.40;11.43;;;-2.60;52.30;;;;;;5128559;27;20234;-69
2023/02/08 01:10:47;;;;;;;19.88;11.13;;;-2.60;52.60;;;;;;5131886;27;20208;-70
2023/02/08 01:13:15;;;;;;;18.17;10.40;;;-2.60;52.60;;;;;;5130195;27;20192;-70
2023/02/08 01:15:42;;;;;;;17.77;10.95;;;-2.60;52.70;;;;;;5132023;27;20232;-70
2023/02/08 01:18:10;;;;;;;15.80;8.85;;;-2.70;52.80;;;;;;5127698;27;20191;-70
2023/02/08 01:20:38;;;;;;;19.75;10.52;;;-2.70;52.70;;;;;;5132265;27;20206;-70
2023/02/08 01:23:06;;;;;;;17.00;11.48;;;-2.80;52.60;;;;;;5130125;27;20608;-70
2023/02/08 01:25:33;;;;;;;19.42;10.63;;;-2.80;52.60;;;;;;5131042;27;20271;-70
2023/02/08 01:28:02;;;;;;;19.67;11.20;;;-2.80;52.60;;;;;;5132036;27;20232;-71
2023/02/08 01:30:29;;;;;;;19.02;10.35;;;-2.80;52.70;;;;;;5133606;27;20223;-70
2023/02/08 01:32:56;;;;;;;22.90;11.90;;;-2.90;52.70;;;;;;5133574;27;20275;-71
2023/02/08 01:35:28;;;;;;;16.35;10.02;;;-2.90;53.50;;;;;;5133659;27;20758;-70
2023/02/08 01:37:55;;;;;;;21.60;11.63;;;-3.00;53.80;;;;;;5133802;27;20231;-69
2023/02/08 01:40:23;;;;;;;17.98;9.95;;;-3.00;53.90;;;;;;5133516;27;20721;-70
2023/02/08 01:42:50;;;;;;;20.08;10.43;;;-3.00;54.00;;;;;;5133513;27;20219;-69
2023/02/08 01:45:24;;;;;;;22.58;11.45;;;-2.90;54.00;;;;;;5133418;27;20244;-69
2023/02/08 01:47:56;;;;;;;15.70;9.63;;;-2.90;54.10;;;;;;5133597;27;20223;-70
2023/02/08 01:50:30;;;;;;;15.70;10.18;;;-3.00;54.00;;;;;;5133480;27;20677;-70
2023/02/08 01:52:57;;;;;;;17.65;10.68;;;-3.00;53.80;;;;;;5133485;27;20191;-70
2023/02/08 01:55:29;;;;;;;25.30;13.20;;;-3.00;53.70;;;;;;5133484;27;20191;-70
2023/02/08 01:58:00;;;;;;;19.10;10.45;;;-3.00;53.60;;;;;;5133247;27;20219;-71
2023/02/08 02:00:28;;;;;;;25.88;10.88;;;-3.00;53.80;;;;;;5133401;27;20552;-70
2023/02/08 02:02:58;;;;;;;15.93;9.52;;;-3.10;53.60;;;;;;5133245;27;20187;-69
2023/02/08 02:05:29;;;;;;;20.17;11.90;;;-3.10;53.60;;;;;;5133384;27;20274;-71
2023/02/08 02:07:58;;;;;;;21.15;11.10;;;-3.10;53.80;;;;;;5133345;28;20274;-70
2023/02/08 02:10:28;;;;;;;20.73;11.88;;;-3.10;53.90;;;;;;5133383;27;20278;-70
2023/02/08 02:13:06;;;;;;;25.40;13.98;;;-3.20;54.20;;;;;;5133139;27;20314;-70
2023/02/08 02:15:33;;;;;;;24.33;12.68;;;-3.20;54.30;;;;;;5133286;27;20252;-69
2023/02/08 02:18:00;;;;;;;21.75;11.60;;;-3.10;54.80;;;;;;5133457;27;20282;-70
2023/02/08 02:20:38;;;;;;;19.83;13.02;;;-3.20;54.60;;;;;;5133203;27;20219;-70
2023/02/08 02:23:49;;;;;;;17.95;11.27;;;-3.20;54.80;;;;;;5133257;28;20672;-70
2023/02/08 02:26:57;;;;;;;20.67;11.27;;;-3.30;54.90;;;;;;5133302;27;20596;-70
2023/02/08 02:29:46;;;;;;;21.30;10.98;;;-3.30;55.70;;;;;;5133030;28;20243;-70
2023/02/08 02:32:34;;;;;;;23.60;12.35;;;-3.30;55.90;;;;;;5133224;28;20280;-70
2023/02/08 02:35:08;;;;;;;24.30;12.00;;;-3.30;56.10;;;;;;5133476;27;20653;-70
2023/02/08 02:37:48;;;;;;;22.55;11.25;;;-3.20;56.30;;;;;;5133149;27;20709;-70
2023/02/08 02:40:25;;;;;;;22.73;12.70;;;-3.20;56.10;;;;;;5132912;27;20192;-70
2023/02/08 02:45:57;;;;;;;18.40;11.68;;;-3.30;55.40;;;;;;5133058;27;20195;-70
2023/02/08 02:48:31;;;;;;;16.55;11.00;;;-3.30;55.40;;;;;;5133059;27;20638;-70
2023/02/08 02:51:02;;;;;;;17.67;11.50;;;-3.40;55.60;;;;;;5132856;28;20278;-70
2023/02/08 02:53:35;;;;;;;16.73;11.40;;;-3.40;55.60;;;;;;5132948;28;20223;-70
2023/02/08 02:56:10;;;;;;;25.48;12.73;;;-3.40;55.50;;;;;;5132826;27;20183;-70
2023/02/08 02:58:40;;;;;;;20.02;10.88;;;-3.50;55.70;;;;;;5132919;27;20273;-70
2023/02/08 03:01:07;;;;;;;19.42;11.63;;;-3.50;55.40;;;;;;5133106;27;20192;-70
2023/02/08 03:03:36;;;;;;;22.35;11.85;;;-3.50;55.60;;;;;;5132761;27;20286;-71
2023/02/08 03:06:06;;;;;;;17.30;10.73;;;-3.60;55.60;;;;;;5132740;27;20226;-71
2023/02/08 03:08:54;;;;;;;17.13;10.30;;;-3.50;55.90;;;;;;5132731;27;20200;-70
2023/02/08 03:11:25;;;;;;;17.27;10.18;;;-3.50;55.90;;;;;;5132545;28;20249;-70
2023/02/08 03:14:03;;;;;;;21.73;10.90;;;-3.60;55.50;;;;;;5134100;27;20642;-70
2023/02/08 03:16:43;;;;;;;22.38;10.88;;;-3.60;55.60;;;;;;5136545;27;20286;-70
2023/02/08 03:19:20;;;;;;;15.73;10.20;;;-3.70;55.60;;;;;;5136467;27;20607;-69
2023/02/08 03:21:54;;;;;;;22.08;11.43;;;-3.80;55.70;;;;;;5136463;27;20233;-70
2023/02/08 03:24:32;;;;;;;18.63;9.93;;;-3.80;55.80;;;;;;5136272;27;20572;-69
2023/02/08 03:27:05;;;;;;;19.25;11.15;;;-3.80;56.10;;;;;;5136118;27;20226;-70
2023/02/08 03:29:41;;;;;;;20.27;11.80;;;-3.90;56.10;;;;;;5136617;27;20295;-69
2023/02/08 03:32:13;;;;;;;16.13;8.98;;;-3.90;56.30;;;;;;5136174;27;20581;-70
2023/02/08 03:34:48;;;;;;;15.65;10.18;;;-3.90;56.50;;;;;;5136164;27;20634;-70
2023/02/08 03:37:21;;;;;;;18.00;10.50;;;-3.90;56.50;;;;;;5136022;27;20187;-70
2023/02/08 03:39:51;;;;;;;24.67;8.90;;;-3.90;56.40;;;;;;5135847;27;20230;-70
2023/02/08 03:42:23;;;;;;;19.42;10.68;;;-3.90;56.40;;;;;;5135815;27;20219;-69
2023/02/08 03:44:56;;;;;;;16.30;10.38;;;-4.00;56.20;;;;;;5135948;27;20661;-70
2023/02/08 03:47:27;;;;;;;20.13;10.38;;;-4.00;56.20;;;;;;5135901;27;20280;-70
2023/02/08 03:49:58;;;;;;;18.13;10.98;;;-4.00;56.40;;;;;;5136129;27;20234;-70
2023/02/08 03:52:28;;;;;;;21.80;11.30;;;-4.00;56.40;;;;;;5135539;27;20237;-70
2023/02/08 03:55:00;;;;;;;22.17;10.80;;;-4.00;56.10;;;;;;5135735;27;20287;-70
2023/02/08 03:57:30;;;;;;;17.10;11.27;;;-4.10;56.10;;;;;;5135691;27;20647;-71
2023/02/08 04:00:01;;;;;;;21.90;10.77;;;-4.10;56.70;;;;;;5135611;27;20597;-70
2023/02/08 04:02:31;;;;;;;25.33;12.60;;;-4.10;57.20;;;;;;5135778;27;20279;-70
2023/02/08 04:05:01;;;;;;;22.58;12.27;;;-4.20;57.70;;;;;;5135533;27;20679;-70
2023/02/08 04:07:28;;;;;;;20.60;11.07;;;-4.20;58.20;;;;;;5135523;27;20221;-70
2023/02/08 04:09:55;;;;;;;15.98;10.30;;;-4.30;59.00;;;;;;5135480;27;20249;-70
2023/02/08 04:12:23;;;;;;;21.23;11.52;;;-4.40;59.20;;;;;;5134973;27;20267;-70
2023/02/08 04:14:50;;;;;;;18.15;11.68;;;-4.30;59.40;;;;;;5135391;27;20271;-70
2023/02/08 04:17:17;;;;;;;22.48;11.82;;;-4.30;59.70;;;;;;5135334;27;20195;-70
2023/02/08 04:19:44;;;;;;;23.80;11.23;;;-4.20;59.40;;;;;;5135569;27;20195;-69
2023/02/08 04:22:12;;;;;;;17.02;11.35;;;-4.20;59.10;;;;;;5135154;27;20278;-70
2023/02/08 04:24:39;;;;;;;19.58;11.00;;;-4.10;58.50;;;;;;5134338;27;20192;-70
2023/02/08 04:27:06;;;;;;;17.70;10.10;;;-4.10;58.30;;;;;;5134661;27;20227;-71
2023/02/08 04:29:33;;;;;;;18.27;10.52;;;-4.10;58.30;;;;;;5135317;27;20827;-70
2023/02/08 04:32:03;;;;;;;20.73;10.73;;;-4.10;58.10;;;;;;5134793;27;20488;-70
2023/02/08 04:34:30;;;;;;;21.90;9.73;;;-4.20;57.20;;;;;;5134927;27;20214;-70
2023/02/08 04:36:57;;;;;;;17.67;9.75;;;-4.30;57.20;;;;;;5134949;27;20199;-70
2023/02/08 04:39:26;;;;;;;19.52;11.65;;;-4.40;56.70;;;;;;5134863;27;20187;-70
2023/02/08 04:41:53;;;;;;;17.00;9.45;;;-4.40;56.70;;;;;;5134788;27;20290;-69
2023/02/08 04:44:20;;;;;;;17.65;9.77;;;-4.40;56.80;;;;;;5134533;27;20188;-70
2023/02/08 04:46:52;;;;;;;18.90;11.90;;;-4.50;57.00;;;;;;5134546;27;20272;-69
2023/02/08 04:49:20;;;;;;;15.82;9.57;;;-4.50;57.30;;;;;;5134592;27;20617;-70
2023/02/08 04:51:47;;;;;;;13.98;10.23;;;-4.50;57.40;;;;;;5134518;27;20306;-70
2023/02/08 04:54:14;;;;;;;21.77;11.35;;;-4.50;57.80;;;;;;5134633;27;20279;-70
2023/02/08 04:56:43;;;;;;;20.85;10.40;;;-4.60;57.70;;;;;;5134362;27;20816;-70
2023/02/08 04:59:10;;;;;;;16.55;9.93;;;-4.60;57.70;;;;;;5134181;27;20195;-70
2023/02/08 05:01:37;;;;;;;20.95;11.25;;;-4.60;57.50;;;;;;5134390;27;20238;-69
2023/02/08 05:04:04;;;;;;;18.20;10.80;;;-4.70;57.30;;;;;;5134408;27;20270;-70
2023/02/08 05:06:32;;;;;;;19.40;10.10;;;-4.70;57.40;;;;;;5134477;27;20231;-70
2023/02/08 05:08:59;;;;;;;22.30;11.18;;;-4.60;57.50;;;;;;5134214;27;20184;-70
2023/02/08 05:11:28;;;;;;;20.95;10.68;;;-4.60;57.30;;;;;;5133656;27;20736;-70
2023/02/08 05:13:56;;;;;;;19.17;10.55;;;-4.70;57.30;;;;;;5133705;27;20689;-69
2023/02/08 05:16:25;;;;;;;18.58;10.18;;;-4.70;57.40;;;;;;5134031;27;20278;-70
2023/02/08 05:18:52;;;;;;;19.00;10.40;;;-4.70;57.60;;;;;;5133802;27;20689;-70
2023/02/08 05:21:22;;;;;;;21.70;11.65;;;-4.70;57.70;;;;;;5133743;27;20184;-70
2023/02/08 05:23:49;;;;;;;19.80;10.68;;;-4.70;57.70;;;;;;5133737;27;20244;-70
2023/02/08 05:26:16;;;;;;;16.20;9.38;;;-4.80;58.20;;;;;;5133627;27;20227;-70
2023/02/08 05:28:44;;;;;;;16.52;10.88;;;-4.70;58.50;;;;;;5133878;27;20615;-70
2023/02/08 05:31:16;;;;;;;26.63;13.20;;;-4.70;58.60;;;;;;5133784;27;20219;-70
2023/02/08 05:33:43;;;;;;;24.70;15.10;;;-4.80;58.00;;;;;;5133566;27;20269;-70
2023/02/08 05:36:10;;;;;;;24.33;13.45;;;-4.80;58.30;;;;;;5133206;27;20324;-71
2023/02/08 05:38:40;;;;;;;24.65;12.60;;;-4.80;58.40;;;;;;5133485;27;20278;-70
2023/02/08 05:41:07;;;;;;;25.45;12.40;;;-4.70;58.70;;;;;;5133473;27;20196;-71
2023/02/08 05:43:34;;;;;;;22.13;12.73;;;-4.70;59.00;;;;;;5133365;27;20191;-70
2023/02/08 05:46:06;;;;;;;21.20;12.10;;;-4.70;58.70;;;;;;5133819;27;20638;-69
2023/02/08 05:48:35;;;;;;;26.50;13.70;;;-4.70;58.20;;;;;;5133553;27;20283;-71
2023/02/08 05:51:02;;;;;;;21.00;11.90;;;-4.80;57.80;;;;;;5133421;27;20230;-70
2023/02/08 05:53:29;;;;;;;23.42;13.43;;;-4.80;57.90;;;;;;5133362;27;20220;-72
2023/02/08 05:55:57;;;;;;;19.83;12.48;;;-4.80;57.90;;;;;;5133415;27;20240;-69
2023/02/08 05:58:25;;;;;;;22.58;12.88;;;-4.80;58.00;;;;;;5133202;27;20223;-70
2023/02/08 06:00:52;;;;;;;23.20;13.15;;;-4.80;58.10;;;;;;5133296;27;20649;-70
2023/02/08 06:03:19;;;;;;;27.55;12.30;;;-4.90;58.10;;;;;;5133187;27;20283;-69
2023/02/08 06:05:48;;;;;;;22.20;12.13;;;-4.90;58.20;;;;;;5133218;27;20278;-70
2023/02/08 06:08:15;;;;;;;23.50;13.05;;;-4.90;58.00;;;;;;5133277;27;20274;-70
2023/02/08 06:10:42;;;;;;;26.60;12.50;;;-4.90;57.90;;;;;;5132823;28;20194;-70
2023/02/08 06:13:09;;;;;;;26.52;14.52;;;-4.90;58.00;;;;;;5132919;27;20708;-70
2023/02/08 06:15:36;;;;;;;24.02;15.07;;;-4.90;58.30;;;;;;5133238;27;20230;-70
2023/02/08 06:18:08;;;;;;;23.52;13.52;;;-4.90;58.10;;;;;;5133452;28;20274;-70
2023/02/08 06:20:34;;;;;;;24.60;14.68;;;-4.90;57.80;;;;;;5133542;28;20184;-72
2023/02/08 06:23:03;;;;;;;33.13;16.08;;;-4.90;57.80;;;;;;5133374;27;20274;-70
2023/02/08 06:25:30;;;;;;;22.40;13.27;;;-4.90;57.90;;;;;;5133378;27;20192;-70
2023/02/08 06:27:57;;;;;;;21.75;13.23;;;-4.90;58.60;;;;;;5133090;27;20291;-70
2023/02/08 06:30:27;;;;;;;24.52;14.65;;;-4.90;59.00;;;;;;5131285;27;20211;-70
2023/02/08 06:32:54;;;;;;;28.15;14.75;;;-4.80;59.30;;;;;;5132779;27;20230;-71
2023/02/08 06:35:22;;;;;;;44.05;21.30;;;-4.90;59.60;;;;;;5132935;27;20191;-70
2023/02/08 06:37:49;;;;;;;33.17;20.48;;;-4.90;59.50;;;;;;5132706;27;20188;-70
2023/02/08 06:40:18;;;;;;;35.78;20.50;;;-4.90;59.60;;;;;;5131842;28;20267;-69
2023/02/08 06:42:46;;;;;;;35.08;19.10;;;-4.90;59.50;;;;;;5132621;27;20191;-70
2023/02/08 06:45:13;;;;;;;34.53;18.92;;;-4.80;59.00;;;;;;5131560;28;20221;-70
2023/02/08 06:47:40;;;;;;;40.95;22.92;;;-4.90;58.20;;;;;;5132735;27;20344;-71
2023/02/08 06:50:08;;;;;;;36.20;19.67;;;-4.90;58.20;;;;;;5136035;27;20651;-70
2023/02/08 06:52:38;;;;;;;49.83;24.42;;;-4.90;58.10;;;;;;5136087;27;20212;-69
2023/02/08 06:55:06;;;;;;;25.45;14.65;;;-4.80;58.40;;;;;;5136510;27;20257;-70
2023/02/08 06:57:34;;;;;;;27.27;16.20;;;-4.70;58.70;;;;;;5136591;27;20279;-71
2023/02/08 07:00:02;;;;;;;27.45;15.15;;;-4.70;59.30;;;;;;5132776;27;20540;-70
2023/02/08 07:02:29;;;;;;;31.67;17.02;;;-4.50;59.20;;;;;;5132938;27;20191;-70
2023/02/08 07:04:56;;;;;;;26.65;15.88;;;-4.40;59.30;;;;;;5136117;27;20549;-71
2023/02/08 07:07:32;;;;;;;19.80;14.43;;;-4.20;59.50;;;;;;5136127;27;20236;-70
2023/02/08 07:10:04;;;;;;;30.67;16.70;;;-4.10;59.10;;;;;;5136469;27;20279;-70
2023/02/08 07:12:36;;;;;;;23.83;15.70;;;-4.00;59.30;;;;;;5135666;27;21453;-70
2023/02/08 07:15:04;;;;;;;25.30;14.10;;;-3.90;59.50;;;;;;5135721;27;20650;-70
2023/02/08 07:17:34;;;;;;;27.17;15.68;;;-3.70;59.90;;;;;;5134244;27;20274;-70
2023/02/08 07:20:07;;;;;;;22.60;13.57;;;-3.40;59.70;;;;;;5136265;27;20290;-70
2023/02/08 07:22:34;;;;;;;31.63;16.10;;;-3.10;59.00;;;;;;5135433;27;20191;-71
2023/02/08 07:25:01;;;;;;;31.88;16.33;;;-2.90;58.50;;;;;;5135113;27;20296;-70
2023/02/08 07:27:29;;;;;;;29.35;16.90;;;-2.60;58.40;;;;;;5135285;27;20552;-70
2023/02/08 07:29:59;;;;;;;28.95;18.67;;;-2.30;57.70;;;;;;5134985;27;20187;-70
2023/02/08 07:32:32;;;;;;;36.28;17.65;;;-2.00;57.30;;;;;;5133467;27;20664;-70
2023/02/08 07:35:00;;;;;;;35.33;16.45;;;-1.70;56.80;;;;;;5135859;27;20290;-70
2023/02/08 07:37:27;;;;;;;35.15;19.23;;;-1.40;56.00;;;;;;5135380;27;20286;-70
2023/02/08 07:39:55;;;;;;;27.23;16.40;;;-1.00;55.40;;;;;;5136053;27;20290;-69
2023/02/08 07:42:22;;;;;;;41.58;19.88;;;-0.80;55.20;;;;;;5135063;27;20195;-70
2023/02/08 07:44:54;;;;;;;31.20;18.52;;;-0.50;54.60;;;;;;5135875;27;20233;-71
2023/02/08 07:47:27;;;;;;;31.40;18.23;;;-0.20;53.60;;;;;;5135451;27;20274;-71
2023/02/08 07:49:59;;;;;;;33.67;19.85;;;0.10;52.90;;;;;;5135832;27;20223;-71
2023/02/08 07:52:28;;;;;;;30.42;19.00;;;0.40;53.00;;;;;;5134737;27;20188;-71
2023/02/08 07:54:55;;;;;;;28.13;18.15;;;0.90;52.40;;;;;;5135722;27;20229;-71
2023/02/08 07:57:22;;;;;;;31.27;18.17;;;1.10;51.40;;;;;;5135204;27;20599;-73
2023/02/08 07:59:57;;;;;;;42.92;19.38;;;1.50;50.90;;;;;;5134971;27;20227;-71
2023/02/08 08:02:24;;;;;;;33.75;17.83;;;1.80;50.00;;;;;;5134440;27;20194;-71
2023/02/08 08:04:53;;;;;;;32.35;17.42;;;2.10;49.70;;;;;;5135022;27;20693;-70
2023/02/08 08:07:20;;;;;;;27.63;16.30;;;2.50;48.80;;;;;;5134998;27;20373;-71
2023/02/08 08:09:47;;;;;;;26.98;15.65;;;2.70;47.80;;;;;;5116418;27;20186;-70
2023/02/08 08:12:16;;;;;;;28.45;17.45;;;3.10;47.20;;;;;;5134114;27;20218;-70
2023/02/08 08:14:43;;;;;;;28.83;19.00;;;3.40;46.60;;;;;;5134920;27;20215;-71
2023/02/08 08:17:12;;;;;;;29.73;16.55;;;3.70;46.20;;;;;;5135198;27;20610;-70
2023/02/08 08:19:39;;;;;;;30.65;15.60;;;4.00;45.50;;;;;;5135522;27;20189;-70
2023/02/08 08:22:13;;;;;;;22.58;14.02;;;4.30;44.50;;;;;;5135205;27;20237;-72
2023/02/08 08:24:44;;;;;;;25.35;14.13;;;4.60;44.30;;;;;;5135087;27;20202;-70
2023/02/08 08:27:13;;;;;;;17.65;12.15;;;5.00;44.20;;;;;;5134732;27;20723;-70
2023/02/08 08:29:43;;;;;;;17.95;12.90;;;5.40;43.40;;;;;;5135230;27;20234;-72
2023/02/08 08:32:10;;;;;;;20.90;14.25;;;5.70;42.30;;;;;;5135034;27;20251;-71
2023/02/08 08:34:39;;;;;;;19.40;13.45;;;6.00;41.60;;;;;;5135123;27;20310;-71
2023/02/08 08:37:06;;;;;;;22.08;12.95;;;6.30;41.00;;;;;;5134831;27;20219;-70
2023/02/08 08:39:49;;;;;;;19.92;13.45;;;6.60;40.50;;;;;;5134832;27;20184;-70
2023/02/08 08:42:22;;;;;;;18.52;12.25;;;6.90;39.90;;;;;;5134885;27;20242;-70
2023/02/08 08:44:49;;;;;;;20.42;12.63;;;7.30;38.90;;;;;;5134629;27;20184;-71
2023/02/08 08:47:16;;;;;;;21.02;12.80;;;7.60;38.20;;;;;;5134652;27;20653;-71
2023/02/08 08:49:47;;;;;;;16.73;11.75;;;8.00;37.50;;;;;;5134291;27;20231;-70
2023/02/08 08:52:16;;;;;;;22.13;13.13;;;8.20;36.80;;;;;;5134694;27;20236;-71
2023/02/08 08:54:44;;;;;;;19.00;13.23;;;8.50;36.40;;;;;;5134604;27;20306;-71
2023/02/08 08:57:11;;;;;;;18.15;12.98;;;8.70;35.70;;;;;;5134478;27;20227;-71
2023/02/08 08:59:43;;;;;;;18.23;13.18;;;9.00;35.10;;;;;;5134537;27;20188;-70
2023/02/08 09:02:12;;;;;;;19.92;13.75;;;9.20;34.40;;;;;;5134267;27;20274;-70
2023/02/08 09:04:41;;;;;;;18.98;14.13;;;9.40;33.40;;;;;;5134363;27;20241;-72
2023/02/08 09:07:11;;;;;;;14.90;12.40;;;9.70;33.50;;;;;;5131725;27;20219;-71
2023/02/08 09:09:39;;;;;;;23.77;13.30;;;9.90;33.00;;;;;;5132248;27;20220;-71
2023/02/08 09:12:08;;;;;;;21.75;11.82;;;10.20;31.60;;;;;;5131120;27;20219;-70
2023/02/08 09:14:40;;;;;;;16.50;12.55;;;10.40;31.30;;;;;;5132266;27;20288;-71
2023/02/08 09:17:07;;;;;;;23.30;13.80;;;10.70;30.70;;;;;;5132184;27;20191;-71
2023/02/08 09:19:39;;;;;;;19.83;14.43;;;11.00;30.20;;;;;;5132139;27;20223;-72
2023/02/08 09:22:07;;;;;;;18.98;11.38;;;11.30;29.50;;;;;;5132735;27;20650;-71
2023/02/08 09:24:34;;;;;;;18.17;12.77;;;11.40;29.10;;;;;;5132199;27;20666;-72
2023/02/08 09:27:05;;;;;;;20.13;12.48;;;11.60;28.90;;;;;;5131666;27;20223;-71
2023/02/08 09:29:34;;;;;;;15.27;11.07;;;12.00;28.70;;;;;;5131411;27;20256;-71
2023/02/08 09:32:06;;;;;;;15.38;12.13;;;12.10;28.60;;;;;;5131747;27;20196;-70
2023/02/08 09:34:38;;;;;;;16.88;11.57;;;12.30;28.00;;;;;;5131565;27;20700;-71
2023/02/08 09:37:06;;;;;;;17.23;11.60;;;12.50;27.80;;;;;;5131585;27;20231;-71
2023/02/08 09:39:35;;;;;;;18.05;11.80;;;12.60;27.90;;;;;;5131834;27;20286;-71
2023/02/08 09:42:34;;;;;;;16.08;12.23;;;12.80;27.90;;;;;;5131468;27;20282;-72
2023/02/08 09:45:20;;;;;;;17.00;11.20;;;13.10;27.80;;;;;;5124749;27;20191;-71
2023/02/08 09:47:54;;;;;;;16.58;11.25;;;13.30;27.00;;;;;;5130896;27;20274;-71
2023/02/08 09:50:31;;;;;;;16.35;10.10;;;13.40;26.70;;;;;;5131814;27;20226;-71
2023/02/08 09:53:04;;;;;;;13.75;10.55;;;13.60;26.50;;;;;;5128389;27;20192;-71
2023/02/08 09:55:38;;;;;;;21.35;13.00;;;13.70;26.80;;;;;;5129033;27;20278;-70
2023/02/08 09:58:13;;;;;;;13.95;12.30;;;13.90;26.60;;;;;;5128970;27;20187;-71
2023/02/08 10:00:44;;;;;;;15.40;11.52;;;14.10;25.90;;;;;;5131725;27;20195;-70
2023/02/08 10:03:23;;;;;;;13.77;11.43;;;14.20;25.10;;;;;;5131537;27;20226;-71
2023/02/08 10:05:52;;;;;;;14.45;10.35;;;14.20;24.40;;;;;;5131365;27;20294;-70
2023/02/08 10:08:26;;;;;;;14.07;11.35;;;13.90;24.40;;;;;;5131415;27;20223;-71
2023/02/08 10:10:56;;;;;;;13.75;10.48;;;13.70;24.00;;;;;;5130952;27;20235;-71
2023/02/08 10:13:38;;;;;;;12.55;10.82;;;13.80;25.70;;;;;;5130436;28;20697;-71
2023/02/08 10:16:13;;;;;;;13.73;9.48;;;13.70;24.40;;;;;;5129009;28;20191;-70
2023/02/08 10:18:50;;;;;;;15.07;10.32;;;13.70;24.50;;;;;;5128952;27;20596;-71
2023/02/08 10:21:56;;;;;;;14.30;9.80;;;13.80;24.90;;;;;;5131377;27;20215;-70
2023/02/08 10:24:47;;;;;;;12.88;10.07;;;14.10;24.70;;;;;;5132981;27;20279;-70
2023/02/08 10:27:28;;;;;;;11.00;9.20;;;14.20;24.30;;;;;;5134271;27;20187;-70
2023/02/08 10:30:08;;;;;;;12.18;9.30;;;14.40;24.10;;;;;;5134416;27;20540;-71
2023/02/08 10:32:54;;;;;;;12.95;9.32;;;14.50;23.20;;;;;;5132993;27;20363;-71
2023/02/08 10:35:30;;;;;;;12.60;8.88;;;14.30;23.00;;;;;;5134508;27;20313;-70
2023/02/08 10:37:58;;;;;;;10.23;7.35;;;13.90;23.10;;;;;;5134520;27;20191;-70
2023/02/08 10:40:35;;;;;;;11.35;7.95;;;13.60;23.40;;;;;;5134081;27;20227;-71
2023/02/08 10:43:19;;;;;;;9.93;8.20;;;13.70;24.00;;;;;;5134955;27;20197;-70
2023/02/08 10:45:56;;;;;;;15.63;8.60;;;13.80;23.80;;;;;;5134286;27;20298;-70
2023/02/08 10:48:41;;;;;;;10.65;7.60;;;14.10;24.10;;;;;;5134844;27;20291;-70
2023/02/08 10:51:14;;;;;;;11.57;8.93;;;14.20;22.90;;;;;;5134982;27;20255;-70
2023/02/08 10:53:41;;;;;;;11.65;8.35;;;14.50;23.10;;;;;;5133246;27;20259;-70
2023/02/08 10:56:21;;;;;;;10.50;7.47;;;14.50;22.30;;;;;;5134218;27;20187;-70
2023/02/08 10:58:51;;;;;;;9.52;8.05;;;14.50;22.40;;;;;;5132889;27;20290;-71
2023/02/08 11:01:19;;;;;;;11.53;8.40;;;14.90;23.20;;;;;;5134695;27;20244;-70
2023/02/08 11:06:46;;;;;;;12.23;7.45;;;15.10;22.50;;;;;;5108213;27;20525;-71
2023/02/08 11:09:22;;;;;;;10.57;8.27;;;14.30;21.90;;;;;;5105483;28;20196;-71
2023/02/08 11:11:51;;;;;;;8.18;6.43;;;14.10;22.00;;;;;;5105501;28;20707;-71
2023/02/08 11:14:23;;;;;;;9.90;7.65;;;14.00;22.00;;;;;;5108219;28;20196;-71
2023/02/08 11:16:53;;;;;;;9.30;7.15;;;13.70;22.70;;;;;;5108288;28;20279;-71
2023/02/08 11:19:34;;;;;;;9.73;7.85;;;13.40;22.70;;;;;;5107563;28;20232;-71
2023/02/08 11:22:06;;;;;;;13.27;8.57;;;13.20;23.00;;;;;;5108343;28;20205;-72
2023/02/08 11:24:41;;;;;;;9.93;7.63;;;13.10;23.20;;;;;;5107085;28;20219;-70
2023/02/08 11:27:28;;;;;;;10.80;7.53;;;13.20;23.10;;;;;;5107480;28;20195;-71
2023/02/08 11:30:18;;;;;;;11.23;8.07;;;13.30;23.20;;;;;;5107539;28;20279;-70
2023/02/08 11:32:49;;;;;;;10.48;7.70;;;13.40;23.60;;;;;;5105549;28;20560;-71
2023/02/08 11:35:21;;;;;;;10.60;7.05;;;13.80;23.30;;;;;;5107801;28;20643;-70
2023/02/08 11:37:52;;;;;;;11.18;7.93;;;14.10;22.80;;;;;;5105790;28;20634;-71
2023/02/08 11:40:24;;;;;;;12.13;8.00;;;14.30;22.80;;;;;;5107973;28;20219;-70
2023/02/08 11:42:52;;;;;;;10.43;7.53;;;14.30;22.40;;;;;;5105893;28;20721;-71
2023/02/08 11:45:24;;;;;;;9.02;6.82;;;14.20;21.00;;;;;;5106217;28;20682;-71
2023/02/08 11:48:03;;;;;;;9.80;7.22;;;14.10;21.20;;;;;;5106834;28;20617;-70
2023/02/08 11:50:45;;;;;;;8.90;6.47;;;13.90;21.20;;;;;;5107446;28;20196;-71
2023/02/08 11:53:26;;;;;;;8.43;6.50;;;13.90;22.40;;;;;;5106011;28;20279;-70
2023/02/08 11:59:24;;;;;;;9.17;6.70;;;14.40;22.10;;;;;;5105546;28;20320;-70
2023/02/08 12:01:56;;;;;;;11.77;7.83;;;14.40;21.90;;;;;;5106832;28;20450;-71
2023/02/08 12:04:23;;;;;;;11.53;6.93;;;14.60;22.40;;;;;;5107271;28;20481;-70
2023/02/08 12:07:11;;;;;;;10.43;8.40;;;14.70;21.40;;;;;;5106871;28;20513;-70
2023/02/08 12:10:16;;;;;;;10.47;7.87;;;14.80;21.90;;;;;;5104419;28;20878;-70
2023/02/08 12:12:57;;;;;;;11.97;8.10;;;14.90;21.90;;;;;;5081769;28;20921;-70
2023/02/08 12:15:42;;;;;;;9.53;7.47;;;14.80;20.80;;;;;;5106654;28;20434;-70
2023/02/08 12:18:35;;;;;;;9.07;6.73;;;14.90;20.50;;;;;;5092317;28;21021;-70
2023/02/08 12:21:11;;;;;;;9.13;7.07;;;14.90;20.60;;;;;;5087864;28;20458;-71
2023/02/08 12:23:54;;;;;;;10.03;7.27;;;14.50;20.80;;;;;;5093177;28;20534;-71
2023/02/08 12:26:47;;;;;;;10.63;7.90;;;14.60;21.60;;;;;;5092295;28;20479;-70
2023/02/08 12:29:26;;;;;;;11.63;6.70;;;14.90;21.30;;;;;;5090544;28;20475;-70
2023/02/08 12:32:04;;;;;;;7.73;6.30;;;14.90;20.40;;;;;;5091086;28;20428;-70
2023/02/08 12:34:45;;;;;;;8.87;7.10;;;14.50;20.20;;;;;;5092623;28;20940;-70
2023/02/08 12:43:44;;;;;;;7.73;5.67;;;13.80;20.80;;;;;;5079533;28;20246;-71
2023/02/08 12:46:28;;;;;;;8.07;7.10;;;13.80;20.20;;;;;;5091482;28;20483;-70
2023/02/08 12:49:28;;;;;;;7.90;6.53;;;13.40;20.20;;;;;;5093022;28;20230;-71
2023/02/08 12:52:09;;;;;;;10.27;7.07;;;12.70;20.50;;;;;;5094389;28;20178;-73
2023/02/08 12:54:41;;;;;;;8.88;6.00;;;12.20;21.40;;;;;;5092322;28;20562;-70
2023/02/08 12:57:12;;;;;;;9.07;7.40;;;12.00;22.30;;;;;;5094002;28;20228;-69
2023/02/08 12:59:44;;;;;;;10.05;6.80;;;12.00;22.90;;;;;;5094373;28;20224;-69
2023/02/08 13:02:17;;;;;;;9.65;7.00;;;12.00;21.90;;;;;;5094194;28;20229;-69
2023/02/08 13:04:48;;;;;;;9.68;6.32;;;12.00;22.00;;;;;;5093293;28;20675;-70
2023/02/08 13:07:26;;;;;;;9.52;7.45;;;12.40;22.50;;;;;;5093664;28;20284;-71
2023/02/08 13:10:15;;;;;;;;;;;;;;;;;;;;;
2023/02/08 13:12:48;;;;;;;10.95;8.07;;;12.90;21.40;;;;;;5094241;28;20193;-70